createdAt,value
2023-03-18T13:51:53.061Z,2.35
2023-03-18T13:54:21.449Z,2.60
2023-03-18T13:56:52.642Z,2.50
2023-03-18T13:59:38.793Z,2.75
2023-03-18T14:02:21.194Z,2.40
2023-03-18T14:04:49.830Z,2.45
2023-03-18T14:07:19.421Z,2.67
2023-03-18T14:09:49.150Z,2.60
2023-03-18T14:15:06.136Z,2.40
2023-03-18T14:17:42.366Z,2.10
2023-03-18T14:20:36.904Z,2.30
2023-03-18T14:23:19.212Z,2.25
2023-03-18T14:25:54.389Z,2.50
2023-03-18T14:28:26.402Z,2.40
2023-03-18T14:30:58.594Z,2.10
2023-03-18T14:33:34.378Z,1.98
2023-03-18T14:36:03.800Z,1.90
2023-03-18T14:38:32.723Z,2.53
2023-03-18T14:41:03.325Z,2.35
2023-03-18T14:43:35.258Z,2.00
2023-03-18T14:46:04.407Z,1.92
2023-03-18T14:48:33.942Z,2.38
2023-03-18T14:51:02.302Z,2.30
2023-03-18T14:53:32.353Z,2.00
2023-03-18T14:56:03.709Z,2.28
2023-03-18T14:58:32.168Z,1.85
2023-03-18T15:01:04.524Z,2.05
2023-03-18T15:03:32.553Z,2.17
2023-03-18T15:06:01.449Z,2.13
2023-03-18T15:08:44.613Z,2.20
2023-03-18T15:11:16.370Z,2.22
2023-03-18T15:13:44.640Z,1.92
2023-03-18T15:16:13.415Z,1.88
2023-03-18T15:18:41.048Z,2.00
2023-03-18T15:21:09.928Z,2.38
2023-03-18T15:23:38.874Z,2.35
2023-03-18T15:26:09.642Z,2.80
2023-03-18T15:28:38.845Z,2.70
2023-03-18T15:31:06.414Z,2.88
2023-03-18T15:33:36.516Z,2.50
2023-03-18T15:36:05.845Z,2.15
2023-03-18T15:38:34.093Z,1.80
2023-03-18T15:41:03.027Z,2.08
2023-03-18T15:43:32.524Z,1.80
2023-03-18T15:46:05.873Z,2.58
2023-03-18T15:48:35.120Z,2.35
2023-03-18T15:51:04.253Z,2.95
2023-03-18T15:53:35.210Z,3.03
2023-03-18T15:56:09.002Z,2.50
2023-03-18T15:58:37.316Z,2.90
2023-03-18T16:01:07.074Z,3.83
2023-03-18T16:03:35.594Z,2.65
2023-03-18T16:06:03.169Z,1.83
2023-03-18T16:08:31.531Z,3.60
2023-03-18T16:11:02.017Z,2.40
2023-03-18T16:13:30.606Z,2.00
2023-03-18T16:15:58.356Z,2.00
2023-03-18T16:18:27.377Z,2.45
2023-03-18T16:20:55.148Z,2.10
2023-03-18T16:23:23.078Z,2.30
2023-03-18T16:25:52.166Z,2.17
2023-03-18T16:28:21.097Z,2.17
2023-03-18T16:30:49.544Z,2.30
2023-03-18T16:33:18.313Z,2.53
2023-03-18T16:35:58.456Z,2.03
2023-03-18T16:38:26.716Z,2.90
2023-03-18T16:40:55.290Z,3.17
2023-03-18T16:43:23.835Z,4.45
2023-03-18T16:45:51.881Z,4.30
2023-03-18T16:48:20.490Z,6.50
2023-03-18T16:50:50.067Z,5.10
2023-03-18T16:53:20.223Z,5.35
2023-03-18T16:55:49.114Z,2.88
2023-03-18T16:58:18.050Z,3.92
2023-03-18T17:00:48.161Z,3.92
2023-03-18T17:03:18.018Z,3.70
2023-03-18T17:05:46.290Z,3.15
2023-03-18T17:08:15.147Z,4.35
2023-03-18T17:10:43.734Z,3.53
2023-03-18T17:13:16.642Z,3.75
2023-03-18T17:15:44.868Z,3.83
2023-03-18T17:18:14.707Z,3.00
2023-03-18T17:20:42.505Z,3.80
2023-03-18T17:23:14.911Z,3.35
2023-03-18T17:25:45.749Z,3.10
2023-03-18T17:28:17.306Z,3.45
2023-03-18T17:30:44.861Z,3.50
2023-03-18T17:33:20.823Z,3.90
2023-03-18T17:35:48.311Z,4.70
2023-03-18T17:38:15.972Z,4.20
2023-03-18T17:40:45.001Z,7.72
2023-03-18T17:43:17.639Z,7.97
2023-03-18T17:45:45.271Z,16.20
2023-03-18T17:48:17.955Z,6.63
2023-03-18T17:50:45.474Z,8.20
2023-03-18T17:53:19.884Z,9.05
2023-03-18T17:55:48.758Z,12.00
2023-03-18T17:58:17.863Z,6.35
2023-03-18T18:00:46.294Z,5.15
2023-03-18T18:03:20.604Z,3.92
2023-03-18T18:05:48.109Z,4.20
2023-03-18T18:08:17.619Z,4.28
2023-03-18T18:10:45.598Z,3.65
2023-03-18T18:13:16.677Z,4.07
2023-03-18T18:15:44.678Z,3.85
2023-03-18T18:18:23.083Z,5.00
2023-03-18T18:20:53.492Z,4.75
2023-03-18T18:23:23.760Z,4.60
2023-03-18T18:25:51.257Z,4.60
2023-03-18T18:28:22.065Z,3.90
2023-03-18T18:33:17.210Z,3.80
2023-03-18T18:35:44.803Z,4.18
2023-03-18T18:38:12.901Z,4.20
2023-03-18T18:40:40.810Z,4.03
2023-03-18T18:43:08.352Z,4.13
2023-03-18T18:45:37.893Z,6.07
2023-03-18T18:48:11.314Z,5.28
2023-03-18T18:50:39.786Z,4.13
2023-03-18T18:53:14.370Z,4.55
2023-03-18T18:55:42.125Z,4.75
2023-03-18T18:58:16.596Z,4.60
2023-03-18T19:00:45.629Z,4.75
2023-03-18T19:03:14.577Z,5.07
2023-03-18T19:05:42.135Z,5.32
2023-03-18T19:08:15.703Z,7.75
2023-03-18T19:10:43.147Z,7.95
2023-03-18T19:13:12.286Z,7.28
2023-03-18T19:15:39.861Z,6.63
2023-03-18T19:18:10.309Z,6.50
2023-03-18T19:20:37.772Z,7.30
2023-03-18T19:23:06.495Z,7.68
2023-03-18T19:25:34.435Z,8.95
2023-03-18T19:28:02.116Z,8.55
2023-03-18T19:30:29.648Z,8.52
2023-03-18T19:32:59.709Z,7.97
2023-03-18T19:35:28.704Z,8.20
2023-03-18T19:37:56.296Z,7.15
2023-03-18T19:40:29.433Z,6.68
2023-03-18T19:42:57.475Z,6.72
2023-03-18T19:45:24.987Z,5.97
2023-03-18T19:47:52.540Z,5.68
2023-03-18T19:50:21.437Z,6.30
2023-03-18T19:52:50.519Z,6.97
2023-03-18T19:55:18.164Z,7.20
2023-03-18T19:57:46.877Z,7.38
2023-03-18T20:00:23.530Z,6.97
2023-03-18T20:02:51.468Z,6.75
2023-03-18T20:05:20.086Z,6.60
2023-03-18T20:07:47.778Z,6.60
2023-03-18T20:10:17.280Z,6.18
2023-03-18T20:12:45.998Z,6.32
2023-03-18T20:15:15.016Z,6.32
2023-03-18T20:17:43.011Z,6.07
2023-03-18T20:20:14.344Z,6.25
2023-03-18T20:22:43.032Z,6.50
2023-03-18T20:25:16.876Z,5.80
2023-03-18T20:27:45.824Z,5.70
2023-03-18T20:30:21.717Z,5.93
2023-03-18T20:32:49.369Z,5.47
2023-03-18T20:35:16.882Z,4.65
2023-03-18T20:37:44.508Z,5.47
2023-03-18T20:40:15.459Z,5.53
2023-03-18T20:42:42.994Z,5.68
2023-03-18T20:45:15.616Z,5.22
2023-03-18T20:47:43.291Z,5.03
2023-03-18T20:50:12.720Z,5.03
2023-03-18T20:52:43.645Z,4.50
2023-03-18T20:55:30.625Z,4.82
2023-03-18T20:57:58.845Z,4.80
2023-03-18T21:00:47.039Z,4.90
2023-03-18T21:03:20.736Z,5.13
2023-03-18T21:05:48.477Z,4.72
2023-03-18T21:08:16.121Z,5.00
2023-03-18T21:10:43.673Z,4.70
2023-03-18T21:13:17.402Z,4.68
2023-03-18T21:15:46.290Z,4.68
2023-03-18T21:18:14.511Z,4.90
2023-03-18T21:20:42.141Z,4.28
2023-03-18T21:23:18.021Z,4.50
2023-03-18T21:25:45.534Z,4.28
2023-03-18T21:28:14.397Z,4.90
2023-03-18T21:30:42.271Z,4.32
2023-03-18T21:33:19.749Z,4.38
2023-03-18T21:38:14.646Z,4.18
2023-03-18T21:40:42.114Z,4.63
2023-03-18T21:43:30.078Z,4.60
2023-03-18T21:45:57.709Z,4.82
2023-03-18T21:48:26.965Z,4.45
2023-03-18T21:50:55.598Z,4.70
2023-03-18T21:53:24.777Z,4.80
2023-03-18T21:55:52.684Z,4.53
2023-03-18T21:58:21.373Z,4.82
2023-03-18T22:00:50.607Z,5.10
2023-03-18T22:03:18.840Z,5.38
2023-03-18T22:05:49.035Z,4.63
2023-03-18T22:08:16.816Z,4.93
2023-03-18T22:10:45.012Z,5.55
2023-03-18T22:13:17.742Z,5.03
2023-03-18T22:15:45.289Z,4.85
2023-03-18T22:18:12.988Z,4.82
2023-03-18T22:20:40.695Z,5.53
2023-03-18T22:23:14.801Z,4.85
2023-03-18T22:25:42.364Z,5.05
2023-03-18T22:28:11.491Z,5.00
2023-03-18T22:30:39.474Z,5.93
2023-03-18T22:33:07.382Z,5.30
2023-03-18T22:35:35.067Z,5.47
2023-03-18T22:38:02.715Z,5.20
2023-03-18T22:40:32.504Z,5.28
2023-03-18T22:43:01.472Z,5.10
2023-03-18T22:45:29.678Z,4.93
2023-03-18T22:47:58.746Z,4.78
2023-03-18T22:50:27.387Z,5.13
2023-03-18T22:52:58.337Z,5.22
2023-03-18T22:55:27.654Z,5.20
2023-03-18T22:57:56.466Z,5.50
2023-03-18T23:00:25.704Z,5.75
2023-03-18T23:02:53.664Z,5.38
2023-03-18T23:05:22.493Z,5.63
2023-03-18T23:07:50.386Z,5.20
2023-03-18T23:10:18.440Z,5.30
2023-03-18T23:12:46.386Z,6.00
2023-03-18T23:15:17.184Z,6.00
2023-03-18T23:17:45.177Z,7.03
2023-03-18T23:20:13.685Z,5.60
2023-03-18T23:22:41.743Z,5.65
2023-03-18T23:25:13.446Z,5.97
2023-03-18T23:27:40.951Z,5.82
2023-03-18T23:30:09.931Z,5.43
2023-03-18T23:32:38.954Z,5.70
2023-03-18T23:35:07.317Z,5.95
2023-03-18T23:37:34.822Z,5.82
2023-03-18T23:40:02.320Z,6.75
2023-03-18T23:42:29.853Z,6.03
2023-03-18T23:44:57.418Z,6.80
2023-03-18T23:47:24.910Z,6.85
2023-03-18T23:49:53.806Z,6.30
2023-03-18T23:52:21.353Z,5.60
2023-03-18T23:54:48.827Z,5.53
2023-03-18T23:57:16.387Z,6.53
2023-03-18T23:59:43.927Z,7.20
